Clinton, OK

09:41 PM CST die 23o November, anno 2014 (GMT -0600)
Clinton Municipal | Change Station
CLOSE
Current Station
Airport
Location: Clinton,
Elevation: 1614 ft
Nearby Weather Stations

Elev 1614 ft 35.54 °N, 98.93 °W | Updated 6 minutes ago

Partialiter Nubila
Partialiter Nubila
41 °F
Feels Like 35 °F
N
9
Ventus Variabilis Ventus from Magis Zephyrus quam Aquilo

Hodie
High -- | Low -- °F
--% Chance of Precip.
Yesterday
High -- | Low -- °F
Precip. -- in
7:19 AM 5:24 PM
Waxing Crescent, 3% visible
Pressio 29.78 in
Visibilitas 10.0 milia passuum
Clouds Serena
Frigus Venti 35 °F
Frigus in quo Ros apparet 28 °F
Umor 61%
Rainfall 0.00 in
Snow Depth Not available.
UV 0 out of 12
Pollen 3.70 out of 12
Air Quality Not available.
Flu Activity Not available.
METAR KCLK 240335Z AUTO 29008KT 10SM CLR 05/M02 A2978 RMK AO2

More Conditions Fewer Conditions

Pressio 29.78 in
Visibilitas 10.0 milia passuum
Clouds Serena
Frigus Venti 35 °F
Frigus in quo Ros apparet 28 °F
Umor 61%
Rainfall 0.00 in
Snow Depth Not available.
UV 0 out of 12
Pollen 3.70 out of 12
Air Quality Not available.
Flu Activity Not available.
METAR KCLK 240335Z AUTO 29008KT 10SM CLR 05/M02 A2978 RMK AO2

More Conditions Fewer Conditions

10-Day Weather Forecast

Almanac

Astronomy

Nov. 23, 2014 Rise Set
Actual Time
Civil Twilight
Nautical Twilight
Astronomical Twilight
Moon
Length Of Visible Light
Length of Day
Tomorrow will be .
, % of the Moon is Illuminated

Today's Extremes

State Highs State Lows

Community

WunderPhotos

Upload Photos

1,773,262 photos uploaded!

WunderBlogs® & News

Nearby

Air Quality

  Air Quality AQ Index Pollutant
Not available.

Snow Depth

Station Depth Elevation

Earthquake Activity

City Distance Mag. Time & Date
Minimum magnitude displayed is 2.5.

Coastal Water Temperatures

Locus Calor

Nearby Weather Stations